Terminal Aerodrome Forecast
Issued by NWS Blacksburg, VA

Home | Current Version | Previous Version | Text Only | Print | Product List | Glossary On
Versions: 1 2 3 4 5 6 7 8 9 10 11 12 13 14 15 16 17 18 19 20 21 22 23
000
FTUS41 KRNK 291133
TAFROA
TAF
KROA 291133Z 2912/3012 10003KT P6SM BKN040
     FM291700 13007KT P6SM SCT050
     FM300200 11003KT P6SM BKN250
     FM300900 VRB03KT 5SM BR OVC018=

USA.gov is the U.S. government's official web portal to all federal, state and local government web resources and services.